Time;durP1;ratioP1;P1;durP2;ratioP2;P2;SDS_P1;SDS_P2;PMS_P1;PMS_P2;Temp;Humidity;BMP_temperature;BMP_pressure;BME280_temperature;BME280_humidity;BME280_pressure;Samples;Min_cycle;Max_cycle;Signal;HPM_P1;HPM_P2
2023/09/16 00:01:33;;;;;;;2.25;1.80;;;21.80;93.90;;;;;;5082131;28;45102;-59
2023/09/16 00:04:00;;;;;;;3.17;1.90;;;21.80;94.00;;;;;;5078947;27;45393;-59
2023/09/16 00:06:28;;;;;;;3.47;2.13;;;21.80;94.20;;;;;;5078248;28;45110;-59
2023/09/16 00:08:55;;;;;;;3.35;2.20;;;21.80;94.00;;;;;;5079443;28;45047;-59
2023/09/16 00:11:23;;;;;;;3.53;2.50;;;21.80;94.00;;;;;;5080843;28;44753;-59
2023/09/16 00:13:50;;;;;;;3.63;2.17;;;21.90;94.30;;;;;;5073525;27;46480;-58
2023/09/16 00:16:17;;;;;;;4.85;2.42;;;21.90;94.00;;;;;;5078062;28;45192;-59
2023/09/16 00:18:43;;;;;;;3.70;2.40;;;21.90;94.10;;;;;;5081956;28;45244;-58
2023/09/16 00:21:11;;;;;;;2.55;2.05;;;21.80;94.40;;;;;;5077545;28;44654;-58
2023/09/16 00:23:39;;;;;;;2.88;2.00;;;21.80;94.00;;;;;;5077829;28;45436;-59
2023/09/16 00:26:06;;;;;;;3.45;2.38;;;21.80;93.70;;;;;;5084697;27;45132;-58
2023/09/16 00:28:35;;;;;;;2.80;2.33;;;21.80;94.50;;;;;;5083673;28;45106;-59
2023/09/16 00:31:03;;;;;;;3.95;2.85;;;21.80;94.00;;;;;;5078064;28;45192;-58
2023/09/16 00:33:31;;;;;;;3.97;2.25;;;21.80;94.60;;;;;;5084904;28;45246;-58
2023/09/16 00:35:58;;;;;;;3.65;2.60;;;21.80;94.40;;;;;;5079954;28;45558;-58
2023/09/16 00:38:25;;;;;;;4.13;2.55;;;21.80;94.70;;;;;;5080698;28;45192;-59
2023/09/16 00:40:53;;;;;;;3.80;2.17;;;21.80;94.60;;;;;;5076490;28;45282;-59
2023/09/16 00:43:20;;;;;;;3.47;2.05;;;21.80;94.40;;;;;;5085034;28;45185;-58
2023/09/16 00:45:47;;;;;;;3.35;2.13;;;21.80;94.30;;;;;;5078211;28;45043;-59
2023/09/16 00:48:16;;;;;;;3.10;2.45;;;21.80;94.30;;;;;;5078934;28;45202;-58
2023/09/16 00:50:43;;;;;;;2.90;2.20;;;21.80;94.70;;;;;;5068758;28;45140;-59
2023/09/16 00:53:10;;;;;;;2.65;2.17;;;21.80;94.20;;;;;;5078006;28;46260;-58
2023/09/16 00:55:38;;;;;;;3.70;2.33;;;21.80;94.70;;;;;;5074433;28;45090;-59
2023/09/16 00:58:09;;;;;;;3.90;2.40;;;21.80;94.70;;;;;;5086435;27;45094;-59
2023/09/16 01:00:36;;;;;;;3.47;2.60;;;21.80;94.20;;;;;;5082324;28;45121;-59
2023/09/16 01:03:04;;;;;;;2.55;2.08;;;21.80;94.70;;;;;;5076764;28;46284;-58
2023/09/16 01:05:31;;;;;;;2.97;2.20;;;21.80;94.30;;;;;;5078135;28;44633;-59
2023/09/16 01:07:58;;;;;;;3.65;2.22;;;21.80;94.40;;;;;;5081293;28;45067;-59
2023/09/16 01:10:25;;;;;;;2.03;1.83;;;21.80;94.70;;;;;;5080592;28;45137;-58
2023/09/16 01:12:55;;;;;;;3.10;2.30;;;21.80;94.70;;;;;;5074672;28;45260;-59
2023/09/16 01:15:27;;;;;;;2.53;2.00;;;21.80;94.00;;;;;;5078115;28;44634;-60
2023/09/16 01:17:58;;;;;;;3.40;2.30;;;21.80;94.70;;;;;;5075558;28;45134;-60
2023/09/16 01:20:25;;;;;;;2.67;2.25;;;21.80;94.70;;;;;;5074629;28;44665;-59
2023/09/16 01:22:52;;;;;;;2.88;2.30;;;21.80;94.70;;;;;;5076536;27;46330;-60
2023/09/16 01:25:21;;;;;;;3.40;2.00;;;21.80;94.00;;;;;;5082858;28;45212;-59
2023/09/16 01:27:47;;;;;;;2.92;2.20;;;21.80;94.30;;;;;;5082032;27;45241;-59
2023/09/16 01:30:14;;;;;;;3.10;2.20;;;21.80;94.70;;;;;;5080596;28;45151;-59
2023/09/16 01:32:46;;;;;;;4.32;2.22;;;21.80;94.70;;;;;;5079465;28;46336;-59
2023/09/16 01:35:15;;;;;;;4.55;2.55;;;21.80;94.70;;;;;;5069928;28;45392;-59
2023/09/16 01:37:44;;;;;;;3.55;2.40;;;21.80;94.50;;;;;;5081597;28;45153;-59
2023/09/16 01:40:13;;;;;;;3.38;2.50;;;21.80;94.70;;;;;;5074633;27;45579;-59
2023/09/16 01:42:41;;;;;;;2.97;2.30;;;21.80;94.10;;;;;;5076819;27;45193;-59
2023/09/16 01:45:10;;;;;;;4.47;2.25;;;21.80;94.70;;;;;;5074195;27;45082;-59
2023/09/16 01:47:37;;;;;;;3.13;2.30;;;21.80;94.70;;;;;;5080548;27;45179;-59
2023/09/16 01:50:05;;;;;;;4.63;2.72;;;21.80;94.30;;;;;;5080042;28;45132;-59
2023/09/16 01:52:32;;;;;;;3.47;2.35;;;21.80;94.40;;;;;;5073944;28;45332;-59
2023/09/16 01:54:59;;;;;;;3.90;2.50;;;21.80;94.70;;;;;;5076800;28;45066;-59
2023/09/16 01:57:25;;;;;;;2.97;2.20;;;21.80;94.30;;;;;;5075441;27;45102;-59
2023/09/16 01:59:53;;;;;;;3.92;2.70;;;21.80;94.80;;;;;;5071770;28;45122;-58
2023/09/16 02:02:20;;;;;;;5.00;2.58;;;21.80;95.20;;;;;;5068720;28;47294;-59
2023/09/16 02:04:47;;;;;;;4.22;3.17;;;21.80;94.50;;;;;;5073374;28;45067;-59
2023/09/16 02:07:14;;;;;;;3.22;2.55;;;21.80;94.70;;;;;;5077776;28;44652;-58
2023/09/16 02:09:41;;;;;;;6.65;2.50;;;21.80;94.70;;;;;;5082960;28;45101;-58
2023/09/16 02:12:08;;;;;;;4.18;2.70;;;21.80;94.70;;;;;;5077313;28;45226;-58
2023/09/16 02:14:39;;;;;;;3.15;2.42;;;21.80;94.50;;;;;;5073320;28;45092;-59
2023/09/16 02:17:09;;;;;;;5.28;2.53;;;21.80;94.60;;;;;;5078652;27;45215;-58
2023/09/16 02:19:36;;;;;;;3.58;2.70;;;21.80;94.90;;;;;;5078906;28;45145;-58
2023/09/16 02:22:03;;;;;;;4.07;2.78;;;21.80;94.80;;;;;;5081727;28;45345;-61
2023/09/16 02:24:31;;;;;;;3.33;2.33;;;21.80;94.90;;;;;;5073087;27;45746;-58
2023/09/16 02:26:58;;;;;;;3.40;2.42;;;21.80;95.80;;;;;;5072754;28;45281;-58
2023/09/16 02:29:24;;;;;;;4.00;2.83;;;21.70;94.70;;;;;;5072341;28;45254;-58
2023/09/16 02:31:52;;;;;;;3.22;2.42;;;21.70;95.80;;;;;;5079662;28;45419;-58
2023/09/16 02:34:20;;;;;;;4.25;2.60;;;21.70;95.10;;;;;;5068970;28;45054;-58
2023/09/16 02:36:46;;;;;;;3.83;2.58;;;21.70;94.70;;;;;;5074528;28;45051;-58
2023/09/16 02:39:13;;;;;;;3.50;2.45;;;21.70;94.70;;;;;;5069567;27;45325;-58
2023/09/16 02:41:40;;;;;;;3.25;2.42;;;21.70;94.80;;;;;;5083165;28;46952;-59
2023/09/16 02:44:09;;;;;;;4.72;2.38;;;21.80;94.70;;;;;;5076487;27;44623;-58
2023/09/16 02:46:36;;;;;;;3.20;2.00;;;21.80;94.80;;;;;;5074264;28;45188;-58
2023/09/16 02:49:03;;;;;;;5.57;2.58;;;21.80;94.40;;;;;;5081285;27;45124;-58
2023/09/16 02:51:32;;;;;;;4.32;2.30;;;21.80;94.60;;;;;;5077638;28;45248;-58
2023/09/16 02:54:00;;;;;;;3.13;2.28;;;21.80;94.20;;;;;;5081090;27;45126;-58
2023/09/16 02:56:26;;;;;;;3.90;2.47;;;21.80;94.70;;;;;;5076125;28;45105;-58
2023/09/16 02:58:54;;;;;;;3.70;2.28;;;21.80;94.30;;;;;;5083388;27;45277;-58
2023/09/16 03:01:21;;;;;;;7.55;2.47;;;21.80;93.80;;;;;;5073857;28;45164;-59
2023/09/16 03:03:48;;;;;;;4.03;2.47;;;21.80;93.80;;;;;;5074554;28;45425;-58
2023/09/16 03:06:14;;;;;;;2.65;2.22;;;21.80;94.40;;;;;;5067655;28;45125;-59
2023/09/16 03:08:43;;;;;;;5.13;2.55;;;21.80;94.10;;;;;;5083976;27;45544;-58
2023/09/16 03:11:09;;;;;;;4.22;2.50;;;21.80;94.40;;;;;;5077863;28;47938;-59
2023/09/16 03:13:36;;;;;;;3.22;2.55;;;21.80;94.50;;;;;;5075558;27;45208;-58
2023/09/16 03:16:17;;;;;;;3.13;1.77;;;21.80;94.30;;;;;;5081169;27;45190;-58
2023/09/16 03:18:46;;;;;;;3.30;2.40;;;21.80;93.80;;;;;;5068176;28;45087;-58
2023/09/16 03:21:14;;;;;;;3.80;2.40;;;21.80;94.40;;;;;;5078741;28;46154;-58
2023/09/16 03:23:42;;;;;;;4.93;2.60;;;21.80;94.70;;;;;;5076125;27;45217;-58
2023/09/16 03:26:10;;;;;;;4.45;2.58;;;21.80;94.20;;;;;;5073662;28;45213;-58
2023/09/16 03:28:40;;;;;;;4.80;2.70;;;21.80;94.30;;;;;;5075956;27;45220;-59
2023/09/16 03:31:07;;;;;;;3.60;2.30;;;21.80;94.00;;;;;;5075586;28;45068;-58
2023/09/16 03:33:34;;;;;;;2.65;2.20;;;21.80;94.30;;;;;;5078728;28;44969;-58
2023/09/16 03:36:01;;;;;;;6.20;2.33;;;21.80;94.00;;;;;;5074722;28;45153;-58
2023/09/16 03:38:30;;;;;;;3.85;2.38;;;21.80;94.50;;;;;;5074953;28;45200;-58
2023/09/16 03:40:59;;;;;;;3.05;2.22;;;21.80;93.50;;;;;;5079326;28;45255;-58
2023/09/16 03:43:26;;;;;;;3.03;2.30;;;21.80;94.20;;;;;;5077008;28;45143;-58
2023/09/16 03:45:53;;;;;;;3.78;2.40;;;21.80;94.00;;;;;;5075920;28;45097;-59
2023/09/16 03:48:20;;;;;;;3.05;2.58;;;21.80;94.20;;;;;;5080227;28;45031;-58
2023/09/16 03:50:46;;;;;;;6.15;2.38;;;21.80;94.30;;;;;;5080853;28;46336;-59
2023/09/16 03:53:13;;;;;;;5.57;2.70;;;21.80;94.10;;;;;;5075062;28;45229;-58
2023/09/16 03:55:40;;;;;;;3.55;2.50;;;21.80;94.00;;;;;;5073389;28;45198;-58
2023/09/16 03:58:08;;;;;;;4.20;2.72;;;21.80;94.00;;;;;;5080289;28;45279;-58
2023/09/16 04:00:35;;;;;;;4.25;3.00;;;21.80;94.10;;;;;;5078213;28;46232;-58
2023/09/16 04:03:01;;;;;;;2.70;2.35;;;21.80;94.20;;;;;;5078373;28;45092;-58
2023/09/16 04:05:28;;;;;;;4.45;2.63;;;21.80;94.00;;;;;;5080614;28;45218;-58
2023/09/16 04:07:55;;;;;;;3.85;2.50;;;21.80;93.80;;;;;;5075342;28;44658;-58
2023/09/16 04:10:22;;;;;;;2.90;2.38;;;21.80;94.40;;;;;;5083666;28;47318;-58
2023/09/16 04:12:48;;;;;;;4.18;2.42;;;21.80;94.30;;;;;;5083451;27;46394;-58
2023/09/16 04:15:17;;;;;;;3.50;2.45;;;21.80;94.20;;;;;;5082780;28;45044;-58
2023/09/16 04:17:43;;;;;;;3.83;2.65;;;21.80;93.90;;;;;;5083494;28;45146;-58
2023/09/16 04:20:11;;;;;;;4.20;2.00;;;21.80;93.50;;;;;;5077155;28;46325;-59
2023/09/16 04:22:37;;;;;;;3.22;2.25;;;21.80;93.30;;;;;;5083010;27;45180;-58
2023/09/16 04:25:05;;;;;;;3.38;2.47;;;21.80;93.50;;;;;;5074576;28;44911;-58
2023/09/16 04:27:31;;;;;;;8.27;2.30;;;21.80;93.70;;;;;;5084782;28;45245;-58
2023/09/16 04:29:58;;;;;;;3.20;2.10;;;21.80;92.80;;;;;;5084806;28;45241;-58
2023/09/16 04:32:26;;;;;;;2.90;2.15;;;21.80;93.10;;;;;;5084078;28;45360;-58
2023/09/16 04:34:56;;;;;;;2.65;2.00;;;21.80;93.10;;;;;;5083402;27;45085;-58
2023/09/16 04:37:23;;;;;;;2.20;2.00;;;21.80;93.20;;;;;;5084748;28;45293;-58
2023/09/16 04:39:50;;;;;;;3.05;2.10;;;21.80;93.10;;;;;;5075629;27;46031;-58
2023/09/16 04:42:16;;;;;;;2.13;1.92;;;21.80;93.20;;;;;;5080288;28;44657;-58
2023/09/16 04:44:44;;;;;;;3.30;2.15;;;21.80;93.00;;;;;;5082734;28;45233;-58
2023/09/16 04:47:11;;;;;;;2.83;2.05;;;21.80;93.20;;;;;;5082751;28;45219;-58
2023/09/16 04:49:39;;;;;;;2.72;2.00;;;21.80;92.80;;;;;;5086379;28;45440;-58
2023/09/16 04:52:06;;;;;;;3.75;2.42;;;21.80;93.20;;;;;;5075347;28;45178;-58
2023/09/16 04:54:33;;;;;;;3.95;2.17;;;21.80;93.00;;;;;;5079542;28;45078;-58
2023/09/16 04:57:00;;;;;;;4.85;2.05;;;21.80;92.90;;;;;;5081937;27;45102;-58
2023/09/16 04:59:26;;;;;;;4.35;2.13;;;21.80;93.20;;;;;;5066824;28;48545;-59
2023/09/16 05:01:53;;;;;;;2.67;1.95;;;21.80;93.30;;;;;;5082820;28;45156;-58
2023/09/16 05:04:20;;;;;;;4.00;2.38;;;21.80;93.50;;;;;;5070380;28;45106;-58
2023/09/16 05:06:48;;;;;;;2.95;2.20;;;21.80;93.40;;;;;;5083059;28;45203;-58
2023/09/16 05:09:15;;;;;;;5.18;2.25;;;21.80;93.50;;;;;;5086411;28;47868;-58
2023/09/16 05:11:43;;;;;;;3.67;2.42;;;21.80;93.80;;;;;;5079407;27;44746;-58
2023/09/16 05:14:10;;;;;;;3.13;2.47;;;21.80;93.40;;;;;;5077647;28;45133;-58
2023/09/16 05:16:37;;;;;;;4.15;2.63;;;21.80;93.30;;;;;;5068593;28;44806;-58
2023/09/16 05:19:04;;;;;;;3.35;2.45;;;21.80;94.10;;;;;;5071001;28;45437;-58
2023/09/16 05:21:30;;;;;;;2.85;2.35;;;21.80;93.60;;;;;;5073732;28;45242;-58
2023/09/16 05:23:58;;;;;;;3.58;2.10;;;21.70;93.70;;;;;;5085914;28;45243;-58
2023/09/16 05:26:25;;;;;;;2.83;2.40;;;21.70;93.50;;;;;;5083773;28;45208;-58
2023/09/16 05:28:52;;;;;;;2.45;1.92;;;21.70;93.50;;;;;;5073021;28;47312;-58
2023/09/16 05:31:19;;;;;;;2.95;2.30;;;21.80;93.50;;;;;;5075849;28;44726;-58
2023/09/16 05:33:46;;;;;;;3.38;2.35;;;21.70;93.70;;;;;;5073401;28;45184;-58
2023/09/16 05:36:12;;;;;;;4.40;2.13;;;21.70;93.70;;;;;;5066216;28;45213;-58
2023/09/16 05:38:39;;;;;;;2.70;2.33;;;21.70;93.90;;;;;;5077324;28;45269;-58
2023/09/16 05:41:07;;;;;;;3.33;2.50;;;21.70;93.50;;;;;;5070541;28;44665;-58
2023/09/16 05:43:34;;;;;;;4.35;2.33;;;21.70;93.60;;;;;;5082983;27;45076;-58
2023/09/16 05:46:01;;;;;;;4.80;2.50;;;21.70;93.70;;;;;;5078401;28;45094;-58
2023/09/16 05:48:28;;;;;;;3.80;2.67;;;21.70;93.80;;;;;;5073362;28;47962;-58
2023/09/16 05:50:57;;;;;;;3.78;2.30;;;21.70;94.10;;;;;;5072746;28;45186;-59
2023/09/16 05:53:24;;;;;;;3.25;2.55;;;21.70;93.90;;;;;;5083123;28;45304;-59
2023/09/16 05:55:51;;;;;;;2.22;1.90;;;21.70;94.20;;;;;;5071255;28;45161;-58
2023/09/16 05:58:20;;;;;;;3.53;2.47;;;21.70;93.00;;;;;;5076907;28;46036;-59
2023/09/16 06:00:54;;;;;;;2.70;1.90;;;21.70;93.70;;;;;;5083392;28;45230;-58
2023/09/16 06:03:21;;;;;;;2.25;2.00;;;21.70;93.60;;;;;;5079820;27;44701;-59
2023/09/16 06:05:48;;;;;;;4.43;2.28;;;21.70;93.90;;;;;;5084363;28;45355;-57
2023/09/16 06:08:15;;;;;;;27.58;2.72;;;21.70;93.90;;;;;;5081301;28;46375;-57
2023/09/16 06:10:42;;;;;;;13.85;2.90;;;21.70;94.30;;;;;;5078715;28;45095;-57
2023/09/16 06:13:09;;;;;;;5.60;2.58;;;21.80;94.40;;;;;;5083825;28;45359;-57
2023/09/16 06:15:37;;;;;;;5.63;2.53;;;21.80;94.00;;;;;;5083636;28;44816;-57
2023/09/16 06:18:06;;;;;;;2.72;1.88;;;21.80;94.00;;;;;;5069343;28;46325;-57
2023/09/16 06:20:33;;;;;;;3.80;2.28;;;21.80;93.80;;;;;;5084308;28;45097;-57
2023/09/16 06:23:03;;;;;;;2.78;1.98;;;21.80;93.70;;;;;;5075799;28;45047;-57
2023/09/16 06:25:30;;;;;;;2.60;2.10;;;21.80;93.30;;;;;;5076463;28;45617;-57
2023/09/16 06:27:58;;;;;;;4.32;1.85;;;21.80;94.40;;;;;;5073856;27;45166;-57
2023/09/16 06:30:25;;;;;;;2.03;1.67;;;21.80;93.90;;;;;;5075011;28;46242;-57
2023/09/16 06:32:53;;;;;;;3.92;2.10;;;21.80;93.90;;;;;;5072108;28;44675;-57
2023/09/16 06:35:20;;;;;;;4.63;2.45;;;21.80;93.90;;;;;;5074644;28;45099;-56
2023/09/16 06:37:49;;;;;;;4.22;1.90;;;21.80;94.50;;;;;;5082458;28;46396;-57
2023/09/16 06:40:16;;;;;;;9.85;2.20;;;21.80;94.30;;;;;;5082128;28;45297;-57
2023/09/16 06:42:43;;;;;;;2.40;1.83;;;21.70;93.40;;;;;;5084419;27;45300;-57
2023/09/16 06:45:11;;;;;;;2.17;1.85;;;21.60;93.90;;;;;;5074492;28;44624;-57
2023/09/16 06:47:37;;;;;;;2.22;1.55;;;21.70;93.80;;;;;;5078648;28;46295;-57
2023/09/16 06:50:08;;;;;;;2.50;2.30;;;21.70;94.70;;;;;;5082400;28;45094;-57
2023/09/16 06:52:35;;;;;;;2.65;1.90;;;21.70;94.70;;;;;;5066529;28;45186;-57
2023/09/16 06:55:02;;;;;;;3.05;1.80;;;21.80;93.70;;;;;;5076679;28;45156;-56
2023/09/16 06:57:28;;;;;;;2.95;1.98;;;22.00;93.00;;;;;;5067937;28;45177;-57
2023/09/16 06:59:55;;;;;;;4.40;1.92;;;21.90;93.30;;;;;;5076463;28;44652;-58
2023/09/16 07:02:22;;;;;;;2.75;1.80;;;21.80;93.60;;;;;;5080492;28;45252;-58
2023/09/16 07:04:50;;;;;;;2.67;1.88;;;21.80;93.60;;;;;;5079974;28;45194;-57
2023/09/16 07:07:20;;;;;;;2.75;2.15;;;21.80;92.80;;;;;;5077347;28;46585;-57
2023/09/16 07:09:46;;;;;;;3.45;2.30;;;21.60;94.00;;;;;;5082241;27;45035;-57
2023/09/16 07:12:13;;;;;;;5.53;1.88;;;21.60;94.50;;;;;;5076897;28;45136;-57
2023/09/16 07:14:40;;;;;;;4.32;2.30;;;21.60;93.70;;;;;;5074386;28;45253;-57
2023/09/16 07:17:07;;;;;;;2.60;1.83;;;21.50;92.70;;;;;;5075905;28;45150;-57
2023/09/16 07:19:34;;;;;;;3.08;1.90;;;21.50;93.00;;;;;;5075893;28;45051;-57
2023/09/16 07:22:01;;;;;;;5.55;2.10;;;21.50;93.80;;;;;;5080135;28;45126;-57
2023/09/16 07:24:30;;;;;;;4.85;2.40;;;21.50;94.00;;;;;;5069894;28;45067;-57
2023/09/16 07:26:56;;;;;;;3.50;2.10;;;21.40;93.30;;;;;;5072284;28;45397;-59
2023/09/16 07:29:23;;;;;;;13.88;2.60;;;21.50;95.40;;;;;;5065392;28;45040;-57
2023/09/16 07:31:50;;;;;;;4.32;2.60;;;21.60;96.40;;;;;;5073214;28;45048;-60
2023/09/16 07:34:19;;;;;;;13.73;2.75;;;21.60;94.80;;;;;;5082692;27;44728;-60
2023/09/16 07:36:46;;;;;;;4.60;2.30;;;21.60;97.10;;;;;;5074094;28;45226;-60
2023/09/16 07:39:13;;;;;;;3.08;2.13;;;21.60;95.70;;;;;;5070569;28;44675;-60
2023/09/16 07:41:41;;;;;;;9.27;2.67;;;21.50;96.60;;;;;;5077163;28;45348;-60
2023/09/16 07:44:08;;;;;;;3.42;2.22;;;21.50;94.70;;;;;;5078595;28;45294;-60
2023/09/16 07:46:35;;;;;;;3.15;2.00;;;21.60;96.40;;;;;;5076055;28;45258;-60
2023/09/16 07:49:02;;;;;;;5.75;2.45;;;21.60;95.80;;;;;;5077839;28;45154;-60
2023/09/16 07:51:29;;;;;;;3.65;1.90;;;21.60;94.80;;;;;;5075579;28;45332;-60
2023/09/16 07:53:56;;;;;;;3.60;2.15;;;21.50;95.80;;;;;;5076940;28;45229;-60
2023/09/16 07:56:22;;;;;;;2.92;2.28;;;21.60;95.80;;;;;;5082749;27;45309;-60
2023/09/16 07:58:50;;;;;;;3.10;2.40;;;21.40;96.30;;;;;;5078101;28;44643;-60
2023/09/16 08:01:17;;;;;;;3.08;2.15;;;21.50;96.10;;;;;;5074755;28;45061;-60
2023/09/16 08:03:44;;;;;;;5.32;2.65;;;21.50;96.40;;;;;;5076840;28;45377;-61
2023/09/16 08:06:11;;;;;;;3.25;2.10;;;21.60;94.60;;;;;;5084888;28;49103;-61
2023/09/16 08:08:38;;;;;;;3.83;2.50;;;21.40;95.00;;;;;;5079548;28;45208;-61
2023/09/16 08:11:04;;;;;;;3.38;1.92;;;21.40;94.90;;;;;;5073155;27;45067;-61
2023/09/16 08:13:31;;;;;;;5.65;2.90;;;21.40;97.50;;;;;;5082902;28;45236;-61
2023/09/16 08:15:59;;;;;;;2.92;2.38;;;21.50;94.80;;;;;;5079435;28;45199;-61
2023/09/16 08:18:26;;;;;;;4.50;2.28;;;21.40;96.40;;;;;;5080610;28;45243;-61
2023/09/16 08:20:53;;;;;;;3.97;2.42;;;21.30;95.40;;;;;;5080984;28;45091;-61
2023/09/16 08:23:20;;;;;;;2.78;1.88;;;21.40;95.10;;;;;;5086659;28;45099;-61
2023/09/16 08:25:47;;;;;;;5.32;2.35;;;21.40;97.70;;;;;;5071743;28;47084;-61
2023/09/16 08:28:13;;;;;;;5.25;2.50;;;21.50;95.20;;;;;;5073910;28;45055;-61
2023/09/16 08:30:40;;;;;;;2.50;2.30;;;21.50;95.90;;;;;;5067647;28;45164;-61
2023/09/16 08:33:09;;;;;;;2.42;2.08;;;21.50;95.90;;;;;;5077659;28;45201;-56
2023/09/16 08:35:35;;;;;;;13.48;3.13;;;21.40;97.00;;;;;;5081311;28;45338;-56
2023/09/16 08:38:02;;;;;;;7.90;2.85;;;21.60;97.00;;;;;;5083874;28;45193;-56
2023/09/16 08:40:32;;;;;;;6.50;2.30;;;21.60;95.70;;;;;;5078874;27;45138;-56
2023/09/16 08:43:11;;;;;;;7.93;2.78;;;21.60;96.10;;;;;;5078848;28;45431;-56
2023/09/16 08:45:44;;;;;;;7.53;3.05;;;21.50;95.70;;;;;;5076963;27;45269;-56
2023/09/16 08:48:15;;;;;;;4.38;2.53;;;21.50;95.30;;;;;;5078702;28;45145;-57
2023/09/16 08:50:43;;;;;;;2.78;2.30;;;21.50;94.90;;;;;;5081926;28;45228;-56
2023/09/16 08:53:12;;;;;;;10.35;2.78;;;21.50;95.70;;;;;;5082846;28;45431;-56
2023/09/16 08:55:39;;;;;;;3.72;2.70;;;21.60;95.00;;;;;;5080901;28;46632;-57
2023/09/16 08:58:08;;;;;;;3.00;2.15;;;21.60;95.70;;;;;;5069875;28;45110;-58
2023/09/16 09:00:36;;;;;;;3.17;1.92;;;21.60;97.30;;;;;;5076643;28;45311;-58
2023/09/16 09:03:03;;;;;;;3.30;2.03;;;21.70;97.10;;;;;;5075725;27;45181;-57
2023/09/16 09:05:34;;;;;;;2.42;1.98;;;21.70;97.20;;;;;;5080475;28;45150;-57
2023/09/16 09:08:01;;;;;;;4.68;2.30;;;21.70;97.60;;;;;;5079944;28;45256;-57
2023/09/16 09:10:28;;;;;;;4.18;2.70;;;21.70;97.50;;;;;;5081095;28;44647;-58
2023/09/16 09:12:55;;;;;;;2.97;2.25;;;21.70;96.70;;;;;;5068159;27;45186;-57
2023/09/16 09:15:22;;;;;;;3.00;2.40;;;21.60;97.00;;;;;;5074155;28;48495;-57
2023/09/16 09:17:55;;;;;;;3.28;2.40;;;21.70;96.70;;;;;;5082567;28;45163;-57
2023/09/16 09:20:24;;;;;;;3.95;2.72;;;21.70;95.90;;;;;;5083263;28;45161;-57
2023/09/16 09:22:53;;;;;;;2.60;2.10;;;21.80;99.00;;;;;;5080986;28;45270;-57
2023/09/16 09:25:22;;;;;;;7.18;3.30;;;21.70;98.80;;;;;;5081871;28;45181;-57
2023/09/16 09:27:49;;;;;;;4.43;2.53;;;21.80;96.40;;;;;;5080445;28;45260;-57
2023/09/16 09:30:16;;;;;;;3.85;2.97;;;21.80;96.10;;;;;;5065750;28;45158;-57
2023/09/16 09:32:44;;;;;;;4.28;2.55;;;21.80;96.20;;;;;;5071692;28;45111;-57
2023/09/16 09:35:12;;;;;;;7.25;2.67;;;21.80;97.00;;;;;;5071544;27;47434;-57
2023/09/16 09:37:39;;;;;;;3.97;2.95;;;21.80;97.10;;;;;;5066686;28;45103;-57
2023/09/16 09:40:10;;;;;;;3.60;2.53;;;21.90;97.50;;;;;;5085134;27;45165;-57
2023/09/16 09:42:41;;;;;;;3.22;2.20;;;21.90;97.80;;;;;;5083316;28;45404;-58
2023/09/16 09:45:09;;;;;;;4.00;2.92;;;21.90;98.20;;;;;;5076493;28;46305;-57
2023/09/16 09:47:36;;;;;;;3.28;2.42;;;21.90;97.80;;;;;;5073529;28;45404;-57
2023/09/16 09:50:05;;;;;;;4.65;2.88;;;21.80;98.60;;;;;;5072108;28;45552;-57
2023/09/16 09:52:32;;;;;;;3.42;2.50;;;21.80;97.20;;;;;;5065106;28;45133;-57
2023/09/16 09:54:59;;;;;;;3.75;2.63;;;21.90;97.40;;;;;;5079619;28;46359;-57
2023/09/16 09:57:27;;;;;;;4.82;2.95;;;21.90;98.40;;;;;;5077456;27;45629;-57
2023/09/16 09:59:56;;;;;;;3.45;2.63;;;21.90;97.70;;;;;;5076737;28;45196;-58
2023/09/16 10:02:26;;;;;;;5.15;2.90;;;21.90;98.00;;;;;;5077201;28;45310;-57
2023/09/16 10:05:05;;;;;;;3.17;2.70;;;21.90;97.90;;;;;;5082347;28;47657;-57
2023/09/16 10:07:32;;;;;;;6.75;3.25;;;21.90;98.80;;;;;;5083184;28;45222;-57
2023/09/16 10:09:59;;;;;;;5.40;2.40;;;21.90;97.40;;;;;;5074453;27;45215;-57
2023/09/16 10:12:27;;;;;;;4.65;3.10;;;21.90;99.00;;;;;;5079504;28;44662;-57
2023/09/16 10:14:54;;;;;;;4.57;3.08;;;21.90;99.00;;;;;;5071497;27;47000;-57
2023/09/16 10:17:22;;;;;;;3.53;2.80;;;21.90;98.90;;;;;;5076856;28;45205;-57
2023/09/16 10:19:49;;;;;;;2.85;2.55;;;21.90;99.90;;;;;;5076659;28;45207;-57
2023/09/16 10:22:17;;;;;;;6.45;2.75;;;21.90;98.90;;;;;;5071596;28;45272;-57
2023/09/16 10:24:45;;;;;;;4.03;2.63;;;21.90;98.70;;;;;;5080465;28;46340;-57
2023/09/16 10:27:18;;;;;;;5.57;3.60;;;21.90;99.70;;;;;;5076903;28;45082;-57
2023/09/16 10:29:48;;;;;;;3.10;2.30;;;22.00;98.20;;;;;;5073688;27;45315;-57
2023/09/16 10:32:16;;;;;;;3.60;2.80;;;21.90;99.90;;;;;;5084387;28;45386;-57
2023/09/16 10:34:45;;;;;;;2.92;2.08;;;22.00;99.90;;;;;;5076339;28;47938;-57
2023/09/16 10:37:16;;;;;;;3.53;2.35;;;21.90;99.90;;;;;;5072229;28;45392;-57
2023/09/16 10:39:44;;;;;;;4.40;3.40;;;22.00;99.60;;;;;;5073076;27;45294;-57
2023/09/16 10:42:12;;;;;;;5.28;3.10;;;22.00;99.90;;;;;;5083480;28;45106;-57
2023/09/16 10:44:41;;;;;;;5.88;3.17;;;22.00;99.90;;;;;;5072868;28;46624;-57
2023/09/16 10:47:10;;;;;;;3.67;2.25;;;22.00;99.40;;;;;;5083916;27;45887;-56
2023/09/16 10:49:37;;;;;;;3.88;2.88;;;22.00;99.90;;;;;;5073280;28;45141;-56
2023/09/16 10:52:07;;;;;;;2.90;2.40;;;22.00;99.90;;;;;;5072328;28;45135;-56
2023/09/16 10:54:41;;;;;;;6.47;3.65;;;22.00;99.90;;;;;;5078749;28;47004;-56
2023/09/16 10:57:16;;;;;;;5.00;2.78;;;22.00;99.60;;;;;;5080385;28;45117;-57
2023/09/16 10:59:44;;;;;;;3.17;2.58;;;22.00;99.90;;;;;;5066054;28;45203;-57
2023/09/16 11:02:21;;;;;;;2.58;2.17;;;22.00;99.90;;;;;;5079479;28;45181;-57
2023/09/16 11:04:48;;;;;;;4.60;3.00;;;22.00;99.90;;;;;;5080452;28;45277;-56
2023/09/16 11:07:15;;;;;;;3.95;2.50;;;22.00;99.90;;;;;;5074944;27;45149;-56
2023/09/16 11:09:44;;;;;;;4.97;2.83;;;22.10;99.90;;;;;;5073050;28;45267;-56
2023/09/16 11:12:11;;;;;;;3.25;2.80;;;22.10;99.90;;;;;;5080018;28;45180;-56
2023/09/16 11:14:38;;;;;;;3.58;3.17;;;22.00;99.90;;;;;;5076204;28;46391;-56
2023/09/16 11:17:14;;;;;;;4.38;2.70;;;22.00;99.90;;;;;;5071552;28;45165;-56
2023/09/16 11:19:43;;;;;;;4.40;3.10;;;22.00;99.90;;;;;;5075331;27;44639;-56
2023/09/16 11:22:10;;;;;;;3.42;2.50;;;22.00;99.90;;;;;;5083831;28;45254;-57
2023/09/16 11:24:38;;;;;;;5.10;3.65;;;22.00;99.90;;;;;;5072436;28;45122;-57
2023/09/16 11:27:06;;;;;;;6.72;3.13;;;22.00;99.90;;;;;;5067317;28;45170;-57
2023/09/16 11:29:33;;;;;;;7.90;4.03;;;22.00;99.90;;;;;;5081614;28;45077;-56
2023/09/16 11:32:02;;;;;;;4.93;3.60;;;22.00;99.90;;;;;;5072416;28;45344;-57
2023/09/16 11:34:30;;;;;;;3.00;2.47;;;22.00;99.90;;;;;;5082614;28;46235;-56
2023/09/16 11:37:01;;;;;;;5.18;3.70;;;22.00;99.90;;;;;;5064925;28;44595;-56
2023/09/16 11:39:36;;;;;;;4.18;2.78;;;22.00;99.90;;;;;;5073649;27;45220;-56
2023/09/16 11:42:04;;;;;;;3.42;2.10;;;22.00;99.90;;;;;;5078245;28;45154;-56
2023/09/16 11:44:31;;;;;;;5.05;3.95;;;22.00;99.90;;;;;;5079628;28;46103;-56
2023/09/16 11:46:59;;;;;;;4.45;3.50;;;22.00;99.90;;;;;;5078787;27;45135;-56
2023/09/16 11:49:26;;;;;;;3.90;2.95;;;22.00;99.90;;;;;;5076680;28;45158;-56
2023/09/16 11:51:53;;;;;;;4.93;3.38;;;22.00;99.90;;;;;;5071281;28;44798;-56
2023/09/16 11:54:22;;;;;;;3.33;2.40;;;22.00;99.90;;;;;;5074184;28;46271;-56
2023/09/16 11:56:50;;;;;;;2.90;2.30;;;22.00;99.90;;;;;;5070947;28;45152;-58
2023/09/16 11:59:18;;;;;;;2.90;2.25;;;22.10;99.90;;;;;;5066565;28;45178;-58
2023/09/16 12:01:46;;;;;;;3.45;2.38;;;22.10;99.90;;;;;;5075238;28;45098;-58
2023/09/16 12:04:15;;;;;;;7.57;2.45;;;22.20;99.90;;;;;;5081968;27;47384;-59
2023/09/16 12:06:42;;;;;;;3.30;2.30;;;22.20;99.90;;;;;;5068196;28;45077;-59
2023/09/16 12:09:14;;;;;;;3.53;2.85;;;22.20;99.90;;;;;;5075241;28;45154;-58
2023/09/16 12:11:43;;;;;;;2.88;2.40;;;22.20;99.90;;;;;;5072879;27;45095;-59
2023/09/16 12:14:11;;;;;;;4.43;3.20;;;22.20;99.90;;;;;;5069943;28;45997;-60
2023/09/16 12:16:38;;;;;;;8.02;3.42;;;22.20;99.90;;;;;;5065220;28;45511;-60
2023/09/16 12:19:05;;;;;;;4.15;3.10;;;22.20;99.90;;;;;;5071612;28;45403;-59
2023/09/16 12:21:33;;;;;;;4.60;3.83;;;22.20;99.90;;;;;;5069931;28;45550;-60
2023/09/16 12:24:00;;;;;;;3.67;2.70;;;22.20;99.90;;;;;;5069378;28;47324;-58
2023/09/16 12:26:28;;;;;;;2.90;2.40;;;22.10;99.90;;;;;;5065248;28;45352;-59
2023/09/16 12:28:56;;;;;;;4.97;4.07;;;22.20;99.90;;;;;;5074432;28;45059;-59
2023/09/16 12:31:24;;;;;;;9.27;3.83;;;22.20;99.90;;;;;;5067586;27;44732;-60
2023/09/16 12:33:54;;;;;;;5.25;3.70;;;22.20;99.90;;;;;;5070372;27;45367;-60
2023/09/16 12:36:24;;;;;;;4.30;3.25;;;22.20;99.90;;;;;;5075710;28;45197;-60
2023/09/16 12:38:53;;;;;;;6.18;4.32;;;22.20;99.90;;;;;;5073240;27;45283;-60
2023/09/16 12:41:21;;;;;;;4.20;2.92;;;22.20;99.90;;;;;;5074028;28;45515;-60
2023/09/16 12:43:49;;;;;;;3.00;2.40;;;22.20;99.90;;;;;;5077752;28;46279;-59
2023/09/16 12:46:20;;;;;;;8.23;3.03;;;22.20;99.90;;;;;;5076422;27;45200;-60
2023/09/16 12:48:48;;;;;;;4.60;3.17;;;22.20;99.90;;;;;;5074981;27;45037;-60